createdAt,value
2022-11-23T00:00:37.911Z,707.7
2022-11-23T00:01:40.397Z,707.3
2022-11-23T00:02:43.033Z,707.1
2022-11-23T00:03:45.223Z,706.9
2022-11-23T00:04:48.111Z,706.9
2022-11-23T00:05:50.578Z,706.7
2022-11-23T00:06:52.792Z,707
2022-11-23T00:07:55.274Z,706.6
2022-11-23T00:08:57.490Z,706.5
2022-11-23T00:09:59.417Z,706.7
2022-11-23T00:11:01.373Z,706.6
2022-11-23T00:12:03.588Z,706.8
2022-11-23T00:13:06.066Z,706.8
2022-11-23T00:14:08.257Z,706.4
2022-11-23T00:15:10.871Z,707.2
2022-11-23T00:16:13.357Z,706.6
2022-11-23T00:17:15.576Z,706.5
2022-11-23T00:18:18.053Z,707.1
2022-11-23T00:19:20.526Z,706.9
2022-11-23T00:20:23.119Z,707
2022-11-23T00:21:26.767Z,706.6
2022-11-23T00:22:29.239Z,706.5
2022-11-23T00:23:31.715Z,707.2
2022-11-23T00:24:34.488Z,707.1
2022-11-23T00:25:36.726Z,706.9
2022-11-23T00:26:38.919Z,706.7
2022-11-23T00:27:41.125Z,707.1
2022-11-23T00:28:43.336Z,706.7
2022-11-23T00:29:45.836Z,706.7
2022-11-23T00:30:47.513Z,706.8
2022-11-23T00:31:50.181Z,706.5
2022-11-23T00:32:52.425Z,706.8
2022-11-23T00:33:54.965Z,706.6
2022-11-23T00:34:57.164Z,706.8
2022-11-23T00:35:59.737Z,706.4
2022-11-23T00:37:01.953Z,707.3
2022-11-23T00:38:04.155Z,706.9
2022-11-23T00:39:06.355Z,707
2022-11-23T00:40:08.551Z,707.2
2022-11-23T00:41:11.032Z,706.7
2022-11-23T00:42:13.531Z,706.8
2022-11-23T00:43:16.013Z,706.8
2022-11-23T00:44:18.227Z,706.6
2022-11-23T00:45:20.432Z,706.5
2022-11-23T00:46:22.938Z,706.7
2022-11-23T00:47:25.428Z,706.9
2022-11-23T00:48:27.644Z,706.6
2022-11-23T00:49:31.891Z,706.8
2022-11-23T00:50:34.521Z,706.8
2022-11-23T00:51:36.804Z,706.9
2022-11-23T00:52:39.032Z,706.6
2022-11-23T00:53:41.242Z,706.9
2022-11-23T00:54:43.723Z,707
2022-11-23T00:55:46.193Z,707.1
2022-11-23T00:56:48.724Z,707
2022-11-23T00:57:51.193Z,707.4
2022-11-23T00:58:53.677Z,706.9
2022-11-23T00:59:56.148Z,707.3
2022-11-23T01:00:58.091Z,707.3
2022-11-23T01:02:00.845Z,707.4
2022-11-23T01:03:02.838Z,707.4
2022-11-23T01:04:05.339Z,707.8
2022-11-23T01:05:07.839Z,707.2
2022-11-23T01:06:10.050Z,707.4
2022-11-23T01:07:12.700Z,707.3
2022-11-23T01:08:15.202Z,707.2
2022-11-23T01:09:17.695Z,707
2022-11-23T01:10:20.177Z,707.2
2022-11-23T01:11:22.651Z,706.8
2022-11-23T01:12:24.847Z,706.8
2022-11-23T01:13:26.488Z,706.9
2022-11-23T01:14:28.966Z,706.8
2022-11-23T01:15:31.446Z,706.7
2022-11-23T01:16:33.925Z,706.3
2022-11-23T01:17:36.147Z,706.4
2022-11-23T01:18:38.341Z,705.9
2022-11-23T01:19:40.814Z,706.2
2022-11-23T01:20:43.041Z,705.9
2022-11-23T01:21:45.236Z,706
2022-11-23T01:22:47.506Z,706
2022-11-23T01:23:50.002Z,706
2022-11-23T01:24:52.203Z,706.1
2022-11-23T01:26:59.666Z,706.3
2022-11-23T01:28:02.167Z,706.6
2022-11-23T01:29:04.655Z,706.4
2022-11-23T01:30:06.869Z,706.3
2022-11-23T01:31:09.353Z,706.2
2022-11-23T01:32:11.564Z,705.8
2022-11-23T01:33:14.065Z,705.9
2022-11-23T01:34:16.566Z,705.8
2022-11-23T01:35:18.754Z,705.6
2022-11-23T01:36:21.227Z,705.8
2022-11-23T01:37:23.467Z,705.7
2022-11-23T01:38:26.034Z,705.8
2022-11-23T01:39:28.347Z,705.7
2022-11-23T01:40:30.623Z,705.7
2022-11-23T01:41:33.099Z,705.6
2022-11-23T01:42:35.295Z,705.8
2022-11-23T01:43:37.236Z,705.3
2022-11-23T01:44:39.858Z,705.6
2022-11-23T01:45:42.331Z,705.7
2022-11-23T01:46:44.517Z,705.5
2022-11-23T01:47:47.096Z,705.5
2022-11-23T01:48:49.331Z,705.6
2022-11-23T01:49:51.817Z,705.1
2022-11-23T01:50:54.010Z,705
2022-11-23T01:51:56.232Z,705.2
2022-11-23T01:52:58.699Z,704.8
2022-11-23T01:54:00.982Z,704.7
2022-11-23T01:56:08.167Z,704.4
2022-11-23T01:57:10.659Z,704
2022-11-23T01:58:13.138Z,704.1
2022-11-23T01:59:15.636Z,703.9
2022-11-23T02:00:18.113Z,704
2022-11-23T02:01:20.674Z,703.9
2022-11-23T02:02:22.891Z,703.9
2022-11-23T02:03:25.087Z,703.8
2022-11-23T02:04:27.585Z,704.3
2022-11-23T02:05:30.059Z,704
2022-11-23T02:06:32.535Z,703.9
2022-11-23T02:07:35.355Z,703.9
2022-11-23T02:08:37.575Z,703.7
2022-11-23T02:09:39.988Z,703.9
2022-11-23T02:10:41.909Z,704.1
2022-11-23T02:11:43.575Z,703.8
2022-11-23T02:12:46.058Z,703.9
2022-11-23T02:13:48.533Z,703.9
2022-11-23T02:14:51.011Z,704.2
2022-11-23T02:15:53.208Z,703.8
2022-11-23T02:16:55.409Z,703.7
2022-11-23T02:17:57.885Z,703.9
2022-11-23T02:19:00.375Z,704.1
2022-11-23T02:20:02.870Z,703.9
2022-11-23T02:21:05.071Z,704
2022-11-23T02:22:07.270Z,704.2
2022-11-23T02:23:09.750Z,704.1
2022-11-23T02:24:11.948Z,704.2
2022-11-23T02:25:14.588Z,704.4
2022-11-23T02:26:17.057Z,704.2
2022-11-23T02:27:19.533Z,704.4
2022-11-23T02:28:21.732Z,704.4
2022-11-23T02:29:24.216Z,704.4
2022-11-23T02:30:26.696Z,704.5
2022-11-23T02:31:28.925Z,704.4
2022-11-23T02:32:30.852Z,704.4
2022-11-23T02:33:33.044Z,704.1
2022-11-23T02:34:35.513Z,704.1
2022-11-23T02:35:37.744Z,704.2
2022-11-23T02:36:40.231Z,704.3
2022-11-23T02:37:42.440Z,704.1
2022-11-23T02:38:44.635Z,704.4
2022-11-23T02:39:46.833Z,704
2022-11-23T02:40:49.387Z,703.9
2022-11-23T02:41:51.868Z,704.2
2022-11-23T02:42:54.342Z,704.3
2022-11-23T02:43:56.550Z,704.4
2022-11-23T02:44:58.764Z,704.5
2022-11-23T02:46:00.674Z,704.6
2022-11-23T02:47:03.496Z,704.6
2022-11-23T02:48:05.743Z,704.7
2022-11-23T02:49:07.966Z,704.8
2022-11-23T02:50:10.160Z,705
2022-11-23T02:51:12.653Z,705
2022-11-23T02:52:14.841Z,704.8
2022-11-23T02:53:17.322Z,705
2022-11-23T02:54:19.801Z,704.6
2022-11-23T02:55:22.286Z,705
2022-11-23T02:56:24.833Z,704.6
2022-11-23T02:57:27.313Z,705.2
2022-11-23T02:58:29.233Z,705.3
2022-11-23T02:59:33.821Z,704.9
2022-11-23T03:00:36.763Z,705.5
2022-11-23T03:01:39.258Z,705.1
2022-11-23T03:02:41.733Z,705.1
2022-11-23T03:03:44.212Z,705
2022-11-23T03:04:46.697Z,704.9
2022-11-23T03:05:49.171Z,704.9
2022-11-23T03:06:51.380Z,704.8
2022-11-23T03:07:54.165Z,704.3
2022-11-23T03:08:56.373Z,704.4
2022-11-23T03:09:58.845Z,704.5
2022-11-23T03:11:01.327Z,704.4
2022-11-23T03:12:03.904Z,704.3
2022-11-23T03:13:06.102Z,704.1
2022-11-23T03:14:08.602Z,704.1
2022-11-23T03:15:10.796Z,704.1
2022-11-23T03:16:12.994Z,704.2
2022-11-23T03:17:15.469Z,704.1
2022-11-23T03:18:17.945Z,704
2022-11-23T03:19:20.448Z,703.9
2022-11-23T03:20:22.648Z,704.2
2022-11-23T03:21:25.126Z,704.3
2022-11-23T03:22:27.636Z,704.1
2022-11-23T03:23:29.847Z,704.1
2022-11-23T03:24:31.759Z,703.9
2022-11-23T03:25:34.252Z,703.8
2022-11-23T03:26:36.731Z,703.9
2022-11-23T03:27:39.018Z,703.7
2022-11-23T03:28:41.211Z,703.6
2022-11-23T03:29:43.688Z,703.7
2022-11-23T03:30:46.162Z,703.6
2022-11-23T03:31:48.357Z,703.4
2022-11-23T03:32:50.568Z,703.7
2022-11-23T03:33:53.039Z,703.6
2022-11-23T03:34:55.244Z,703.5
2022-11-23T03:35:57.729Z,703.6
2022-11-23T03:37:00.220Z,703.6
2022-11-23T03:38:02.435Z,703.5
2022-11-23T03:39:04.915Z,703.9
2022-11-23T03:40:07.385Z,704.2
2022-11-23T03:41:09.868Z,704.4
2022-11-23T03:42:12.336Z,704.3
2022-11-23T03:43:14.899Z,704.4
2022-11-23T03:44:17.367Z,704.4
2022-11-23T03:45:19.841Z,704.5
2022-11-23T03:46:22.322Z,704.8
2022-11-23T03:47:24.794Z,705
2022-11-23T03:48:27.278Z,704.3
2022-11-23T03:49:31.001Z,704.6
2022-11-23T03:50:33.440Z,704.6
2022-11-23T03:51:35.932Z,704.6
2022-11-23T03:52:39.451Z,704.7
2022-11-23T03:53:42.102Z,705.2
2022-11-23T03:54:44.348Z,705.2
2022-11-23T03:55:46.616Z,705.4
2022-11-23T03:56:49.098Z,705.1
2022-11-23T03:57:51.587Z,705.2
2022-11-23T03:58:54.154Z,705.2
2022-11-23T03:59:56.612Z,705.3
2022-11-23T04:00:59.353Z,705.1
2022-11-23T04:02:01.584Z,705.3
2022-11-23T04:03:04.067Z,705.3
2022-11-23T04:04:06.540Z,705.1
2022-11-23T04:05:08.177Z,704.9
2022-11-23T04:06:10.650Z,705.6
2022-11-23T04:07:13.826Z,705.4
2022-11-23T04:08:16.256Z,705.3
2022-11-23T04:09:18.782Z,705.3
2022-11-23T04:10:20.991Z,705.1
2022-11-23T04:11:23.218Z,705.3
2022-11-23T04:12:25.435Z,705
2022-11-23T04:13:27.662Z,705
2022-11-23T04:14:30.225Z,704.9
2022-11-23T04:15:32.704Z,705
2022-11-23T04:16:34.904Z,705.3
2022-11-23T04:17:37.384Z,705.3
2022-11-23T04:18:39.615Z,705.3
2022-11-23T04:19:42.095Z,705.3
2022-11-23T04:20:44.579Z,705.2
2022-11-23T04:21:47.059Z,704.8
2022-11-23T04:22:48.709Z,704.7
2022-11-23T04:23:51.186Z,705
2022-11-23T04:24:53.404Z,705.1
2022-11-23T04:25:55.899Z,705.2
2022-11-23T04:26:58.096Z,704.9
2022-11-23T04:28:00.605Z,704.9
2022-11-23T04:29:02.801Z,704.9
2022-11-23T04:30:05.375Z,705.3
2022-11-23T04:31:07.845Z,705.2
2022-11-23T04:32:10.323Z,705.1
2022-11-23T04:33:12.800Z,705.1
2022-11-23T04:34:14.731Z,704.9
2022-11-23T04:35:16.936Z,705.3
2022-11-23T04:36:19.413Z,705.1
2022-11-23T04:37:21.886Z,705.1
2022-11-23T04:38:24.359Z,704.9
2022-11-23T04:39:26.547Z,705.1
2022-11-23T04:40:29.036Z,705.1
2022-11-23T04:41:30.984Z,705.3
2022-11-23T04:42:33.214Z,705.1
2022-11-23T04:43:35.416Z,705.2
2022-11-23T04:44:37.616Z,705.4
2022-11-23T04:45:40.198Z,705.4
2022-11-23T04:46:42.675Z,705.4
2022-11-23T04:47:44.583Z,705.4
2022-11-23T04:48:46.797Z,705.3
2022-11-23T04:49:49.285Z,705.7
2022-11-23T04:51:56.476Z,705.5
2022-11-23T04:52:58.679Z,705.3
2022-11-23T04:54:01.156Z,705.8
2022-11-23T04:55:03.637Z,705.9
2022-11-23T04:56:06.138Z,705.5
2022-11-23T04:57:08.338Z,705.7
2022-11-23T04:58:10.824Z,706
2022-11-23T04:59:13.054Z,705.9
2022-11-23T05:00:15.301Z,706.2
2022-11-23T05:01:18.375Z,706.3
2022-11-23T05:02:20.577Z,706.4
2022-11-23T05:03:23.073Z,706.2
2022-11-23T05:04:25.542Z,706.3
2022-11-23T05:05:27.743Z,706.3
2022-11-23T05:06:30.240Z,706.9
2022-11-23T05:07:33.015Z,706.7
2022-11-23T05:08:35.226Z,707
2022-11-23T05:09:37.835Z,707.1
2022-11-23T05:10:40.079Z,707.2
2022-11-23T05:11:42.587Z,707.1
2022-11-23T05:12:44.791Z,706.8
2022-11-23T05:13:46.984Z,707.1
2022-11-23T05:14:49.466Z,707.2
2022-11-23T05:15:51.690Z,706.9
2022-11-23T05:16:54.352Z,706.7
2022-11-23T05:19:01.267Z,706.5
2022-11-23T05:20:03.756Z,706.8
2022-11-23T05:21:06.246Z,706.9
2022-11-23T05:22:08.720Z,707
2022-11-23T05:23:10.649Z,707
2022-11-23T05:24:13.120Z,707.2
2022-11-23T05:25:15.318Z,707.3
2022-11-23T05:26:17.801Z,707
2022-11-23T05:27:20.298Z,707.2
2022-11-23T05:29:27.488Z,707.2
2022-11-23T05:30:29.407Z,707
2022-11-23T05:31:31.064Z,707.4
2022-11-23T05:32:33.664Z,707.6
2022-11-23T05:33:36.153Z,707.1
2022-11-23T05:34:38.630Z,707.1
2022-11-23T05:35:41.111Z,707.4
2022-11-23T05:36:44.523Z,707.3
2022-11-23T05:37:47.020Z,707.4
2022-11-23T05:38:48.658Z,707.1
2022-11-23T05:39:51.130Z,707.5
2022-11-23T05:40:53.345Z,707.2
2022-11-23T05:41:55.811Z,707.2
2022-11-23T05:42:58.064Z,707.3
2022-11-23T05:44:00.541Z,707.6
2022-11-23T05:46:09.470Z,707.4
2022-11-23T05:47:11.950Z,707.3
2022-11-23T05:48:14.525Z,707.2
2022-11-23T05:49:17.004Z,707.1
2022-11-23T05:50:19.488Z,707.2
2022-11-23T05:51:21.958Z,707
2022-11-23T05:52:24.170Z,707
2022-11-23T05:53:26.104Z,707.1
2022-11-23T05:54:28.480Z,707.1
2022-11-23T05:55:30.969Z,707.2
2022-11-23T05:57:38.459Z,707.4
2022-11-23T05:58:40.962Z,707.5
2022-11-23T05:59:43.168Z,707.5
2022-11-23T06:00:45.655Z,707.4
2022-11-23T06:01:48.153Z,707.3
2022-11-23T06:02:50.630Z,707.3
2022-11-23T06:03:53.571Z,707.9
2022-11-23T06:04:55.784Z,707.2
2022-11-23T06:05:58.264Z,707.8
2022-11-23T06:07:00.747Z,707.7
2022-11-23T06:08:02.948Z,707.9
2022-11-23T06:09:05.432Z,708.1
2022-11-23T06:10:07.984Z,707.9
2022-11-23T06:11:09.635Z,707.7
2022-11-23T06:12:12.114Z,708.1
2022-11-23T06:13:14.020Z,707.6
2022-11-23T06:14:16.151Z,707.9
2022-11-23T06:15:18.363Z,707.9
2022-11-23T06:16:20.589Z,707.8
2022-11-23T06:17:23.103Z,708
2022-11-23T06:18:25.591Z,707.9
2022-11-23T06:19:28.149Z,708.1
2022-11-23T06:20:30.625Z,707.7
2022-11-23T06:21:33.099Z,708.1
2022-11-23T06:22:35.132Z,708.4
2022-11-23T06:23:36.769Z,707.7
2022-11-23T06:24:39.243Z,708
2022-11-23T06:25:41.167Z,707.7
2022-11-23T06:26:43.651Z,708
2022-11-23T06:27:45.910Z,707.6
2022-11-23T06:28:48.397Z,708.1
2022-11-23T06:29:50.631Z,707.7
2022-11-23T06:30:53.120Z,707.5
2022-11-23T06:31:55.600Z,707.6
2022-11-23T06:32:57.805Z,707.3
2022-11-23T06:33:59.746Z,707.5
2022-11-23T06:35:03.415Z,707.7
2022-11-23T06:36:05.622Z,707.2
2022-11-23T06:37:08.098Z,707.5
2022-11-23T06:38:10.584Z,707.3
2022-11-23T06:39:12.791Z,707.1
2022-11-23T06:40:15.004Z,707.1
2022-11-23T06:41:17.482Z,707.2
2022-11-23T06:43:24.679Z,706.9
2022-11-23T06:44:27.157Z,707
2022-11-23T06:45:29.653Z,706.8
2022-11-23T06:46:32.130Z,706.7
2022-11-23T06:47:34.341Z,706.8
2022-11-23T06:48:36.809Z,706.7
2022-11-23T06:49:39.294Z,706.8
2022-11-23T06:50:41.583Z,706.8
2022-11-23T06:51:43.783Z,706.8
2022-11-23T06:52:46.253Z,706.7
2022-11-23T06:53:48.730Z,706.7
2022-11-23T06:54:50.637Z,706.8
2022-11-23T06:55:53.123Z,706.5
2022-11-23T06:56:55.630Z,706.4
2022-11-23T06:57:57.557Z,706.1
2022-11-23T06:59:00.044Z,706.2
2022-11-23T07:00:02.547Z,706.2
2022-11-23T07:01:05.513Z,706.1
2022-11-23T07:02:07.464Z,706.5
2022-11-23T07:03:10.239Z,705.9
2022-11-23T07:04:11.896Z,706.3
2022-11-23T07:05:14.374Z,706.1
2022-11-23T07:06:16.947Z,706.4
2022-11-23T07:07:19.734Z,705.9
2022-11-23T07:08:22.263Z,705.9
2022-11-23T07:09:24.751Z,705.7
2022-11-23T07:10:26.954Z,705.6
2022-11-23T07:11:29.431Z,705.6
2022-11-23T07:12:31.363Z,705.6
2022-11-23T07:13:33.275Z,705.4
2022-11-23T07:14:35.462Z,705.1
2022-11-23T07:15:37.968Z,705.5
2022-11-23T07:16:40.202Z,705
2022-11-23T07:17:42.675Z,704.9
2022-11-23T07:18:44.869Z,704.9
2022-11-23T07:19:47.354Z,704.6
2022-11-23T07:20:49.301Z,704.4
2022-11-23T07:21:51.858Z,704.2
2022-11-23T07:22:54.341Z,704.3
2022-11-23T07:23:56.835Z,703.9
2022-11-23T07:24:59.312Z,703.9
2022-11-23T07:26:01.496Z,703.8
2022-11-23T07:27:03.730Z,703.7
2022-11-23T07:28:05.969Z,703.5
2022-11-23T07:29:08.453Z,703.5
2022-11-23T07:30:10.926Z,703.2
2022-11-23T07:31:13.433Z,703.8
2022-11-23T07:32:15.940Z,703
2022-11-23T07:33:18.413Z,703
2022-11-23T07:34:20.335Z,702.7
2022-11-23T07:35:22.816Z,702.3
2022-11-23T07:36:24.748Z,702.4
2022-11-23T07:37:27.320Z,702.5
2022-11-23T07:38:29.549Z,702.6
2022-11-23T07:40:36.462Z,702.4
2022-11-23T07:41:38.657Z,702.2
2022-11-23T07:43:46.131Z,702.2
2022-11-23T07:44:48.608Z,702.4
2022-11-23T07:45:51.098Z,702.2
2022-11-23T07:46:53.314Z,702.1
2022-11-23T07:47:55.826Z,702.2
2022-11-23T07:48:58.318Z,702.3
2022-11-23T07:50:00.524Z,702.4
2022-11-23T07:51:02.999Z,702.4
2022-11-23T07:52:05.496Z,702.1
2022-11-23T07:53:07.810Z,702.1
2022-11-23T07:54:10.022Z,702
2022-11-23T07:55:12.526Z,701.9
2022-11-23T07:56:14.458Z,702.1
2022-11-23T07:57:16.935Z,701.8
2022-11-23T07:58:19.159Z,701.7
2022-11-23T07:59:21.105Z,701.9
2022-11-23T08:00:22.765Z,701.7
2022-11-23T08:01:25.252Z,701.4
2022-11-23T08:02:28.060Z,701.5
2022-11-23T08:03:32.274Z,701.5
2022-11-23T08:04:36.572Z,701.2
2022-11-23T08:05:39.065Z,701.4
2022-11-23T08:06:41.555Z,701.5
2022-11-23T08:07:44.356Z,701.2
2022-11-23T08:08:46.964Z,700.8
2022-11-23T08:09:49.439Z,701
2022-11-23T08:11:56.644Z,701
2022-11-23T08:12:59.129Z,700.7
2022-11-23T08:14:01.373Z,700.6
2022-11-23T08:15:03.576Z,700.6
2022-11-23T08:16:06.084Z,700.9
2022-11-23T08:17:08.554Z,700.5
2022-11-23T08:18:10.749Z,700.4
2022-11-23T08:19:12.967Z,700.7
2022-11-23T08:20:15.470Z,700.1
2022-11-23T08:21:17.118Z,700
2022-11-23T08:22:19.325Z,700.2
2022-11-23T08:23:21.796Z,700.3
2022-11-23T08:24:24.392Z,699.6
2022-11-23T08:25:26.604Z,699.9
2022-11-23T08:26:29.098Z,699.9
2022-11-23T08:27:31.316Z,700
2022-11-23T08:28:33.549Z,699.9
2022-11-23T08:29:35.811Z,700.4
2022-11-23T08:30:38.018Z,700
2022-11-23T08:31:40.511Z,700.3
2022-11-23T08:32:42.724Z,700.4
2022-11-23T08:33:45.231Z,700.5
2022-11-23T08:34:47.465Z,700.2
2022-11-23T08:35:49.428Z,700.3
2022-11-23T08:36:51.926Z,700.1
2022-11-23T08:37:54.404Z,700.6
2022-11-23T08:38:56.343Z,700.6
2022-11-23T08:39:58.909Z,700.5
2022-11-23T08:41:01.393Z,700.6
2022-11-23T08:42:03.881Z,700.6
2022-11-23T08:43:06.125Z,700.7
2022-11-23T08:44:08.614Z,700.6
2022-11-23T08:45:10.830Z,700.7
2022-11-23T08:46:13.251Z,700.3
2022-11-23T08:47:14.940Z,700.2
2022-11-23T08:48:17.162Z,700.3
2022-11-23T08:49:19.107Z,700.3
2022-11-23T08:50:21.652Z,700.4
2022-11-23T08:51:24.140Z,700.5
2022-11-23T08:52:26.067Z,700.3
2022-11-23T08:53:28.008Z,700.5
2022-11-23T08:54:31.589Z,700
2022-11-23T08:55:34.382Z,700.4
2022-11-23T08:56:37.014Z,700.5
2022-11-23T08:57:39.496Z,700.2
2022-11-23T08:58:41.799Z,700.5
2022-11-23T08:59:44.002Z,700.6
2022-11-23T09:00:46.209Z,700.9
2022-11-23T09:01:48.861Z,700.3
2022-11-23T09:02:51.360Z,700.6
2022-11-23T09:03:53.283Z,700.5
2022-11-23T09:04:55.487Z,700.1
2022-11-23T09:05:57.148Z,700.5
2022-11-23T09:06:59.400Z,700.6
2022-11-23T09:08:01.630Z,700.5
2022-11-23T09:09:04.122Z,700.6
2022-11-23T09:10:06.062Z,700.6
2022-11-23T09:11:08.676Z,700.9
2022-11-23T09:12:11.202Z,700.6
2022-11-23T09:13:13.135Z,700.7
2022-11-23T09:14:31.673Z,700.8
2022-11-23T09:15:34.256Z,700.8
2022-11-23T09:16:36.837Z,700.6
2022-11-23T09:17:39.542Z,700.9
2022-11-23T09:18:41.493Z,701.1
2022-11-23T09:19:43.703Z,701.1
2022-11-23T09:20:46.202Z,701.3
2022-11-23T09:21:48.723Z,701.5
2022-11-23T09:22:51.233Z,701.3
2022-11-23T09:23:53.439Z,701.3
2022-11-23T09:24:55.999Z,701.6
2022-11-23T09:25:57.996Z,701.6
2022-11-23T09:27:00.300Z,701.6
2022-11-23T09:28:02.526Z,701.7
2022-11-23T09:29:05.025Z,701.9
2022-11-23T09:30:07.514Z,701.7
2022-11-23T09:31:10.037Z,701.7
2022-11-23T09:32:11.954Z,701.9
2022-11-23T09:33:14.168Z,701.4
2022-11-23T09:34:16.397Z,701.7
2022-11-23T09:35:18.046Z,701.5
2022-11-23T09:36:20.581Z,701.2
2022-11-23T09:37:23.118Z,701.3
2022-11-23T09:39:30.607Z,701.2
2022-11-23T09:40:33.136Z,701.3
2022-11-23T09:41:35.623Z,701.4
2022-11-23T09:42:37.926Z,701.6
2022-11-23T09:43:40.420Z,701.4
2022-11-23T09:44:42.614Z,701.5
2022-11-23T09:45:44.956Z,701.7
2022-11-23T09:46:47.175Z,701.8
2022-11-23T09:47:49.379Z,701.6
2022-11-23T09:48:51.329Z,701.7
2022-11-23T09:49:53.815Z,701.4
2022-11-23T09:50:56.311Z,702
2022-11-23T09:51:58.491Z,701.8
2022-11-23T09:53:01.041Z,702
2022-11-23T09:54:03.521Z,702
2022-11-23T09:55:05.733Z,701.8
2022-11-23T09:56:07.679Z,702.1
2022-11-23T09:57:10.193Z,701.7
2022-11-23T09:58:12.479Z,702
2022-11-23T09:59:14.708Z,702.1
2022-11-23T10:00:17.200Z,701.5
2022-11-23T10:01:20.182Z,702
2022-11-23T10:02:22.441Z,702
2022-11-23T10:03:24.918Z,701.9
2022-11-23T10:04:27.204Z,701.9
2022-11-23T10:05:29.697Z,701.5
2022-11-23T10:06:32.090Z,701.8
2022-11-23T10:07:34.533Z,702
2022-11-23T10:08:36.789Z,702
2022-11-23T10:09:39.275Z,702.1
2022-11-23T10:10:41.761Z,702
2022-11-23T10:11:44.259Z,702.3
2022-11-23T10:12:46.484Z,701.9
2022-11-23T10:13:48.507Z,702.7
2022-11-23T10:14:50.703Z,702.3
2022-11-23T10:15:52.913Z,702.6
2022-11-23T10:16:55.129Z,702.5
2022-11-23T10:17:57.039Z,702.3
2022-11-23T10:18:59.549Z,702.8
2022-11-23T10:20:02.037Z,702.9
2022-11-23T10:21:04.243Z,703.2
2022-11-23T10:22:06.755Z,703.1
2022-11-23T10:23:09.001Z,703.2
2022-11-23T10:24:11.517Z,703.6
2022-11-23T10:25:13.727Z,703.6
2022-11-23T10:26:16.343Z,703.2
2022-11-23T10:27:18.557Z,703.6
2022-11-23T10:28:20.759Z,704
2022-11-23T10:29:23.362Z,704.2
2022-11-23T10:30:25.576Z,704
2022-11-23T10:31:28.071Z,704.4
2022-11-23T10:32:30.554Z,704.2
2022-11-23T10:33:32.491Z,704.7
2022-11-23T10:34:36.091Z,705
2022-11-23T10:35:38.312Z,704.9
2022-11-23T10:36:40.537Z,705.1
2022-11-23T10:37:42.462Z,705.1
2022-11-23T10:38:44.952Z,705.1
2022-11-23T10:39:47.185Z,705.7
2022-11-23T10:40:49.133Z,705.1
2022-11-23T10:41:51.609Z,705.4
2022-11-23T10:42:54.128Z,705.7
2022-11-23T10:43:56.367Z,705.4
2022-11-23T10:44:58.974Z,705.6
2022-11-23T10:46:01.698Z,705.6
2022-11-23T10:47:03.937Z,705.3
2022-11-23T10:48:06.432Z,705.6
2022-11-23T10:49:08.650Z,705.6
2022-11-23T10:50:11.134Z,705.6
2022-11-23T10:51:13.060Z,705.4
2022-11-23T10:52:15.573Z,706.1
2022-11-23T10:53:17.778Z,705.8
2022-11-23T10:54:20.265Z,705.7
2022-11-23T10:55:22.491Z,705.8
2022-11-23T10:56:24.983Z,705.7
2022-11-23T10:57:27.191Z,705.4
2022-11-23T10:58:29.118Z,705.6
2022-11-23T10:59:31.621Z,705.7
2022-11-23T11:00:34.226Z,705.6
2022-11-23T11:01:37.124Z,705.4
2022-11-23T11:02:39.651Z,706
2022-11-23T11:03:41.594Z,705.8
2022-11-23T11:04:43.556Z,705.9
2022-11-23T11:06:51.024Z,705.8
2022-11-23T11:07:54.042Z,706
2022-11-23T11:08:56.575Z,706.1
2022-11-23T11:09:58.228Z,706.1
2022-11-23T11:11:00.470Z,705.9
2022-11-23T11:12:02.959Z,706
2022-11-23T11:13:04.876Z,706.1
2022-11-23T11:14:07.387Z,706
2022-11-23T11:16:14.933Z,705.9
2022-11-23T11:17:17.416Z,706.3
2022-11-23T11:18:19.896Z,706.4
2022-11-23T11:19:22.375Z,706.3
2022-11-23T11:20:24.892Z,706.6
2022-11-23T11:21:27.389Z,706.8
2022-11-23T11:22:29.911Z,706.5
2022-11-23T11:23:32.390Z,706.8
2022-11-23T11:24:36.787Z,706.9
2022-11-23T11:25:39.529Z,706.9
2022-11-23T11:26:41.494Z,707
2022-11-23T11:27:43.728Z,707.5
2022-11-23T11:28:46.195Z,707.4
2022-11-23T11:29:48.676Z,707.2
2022-11-23T11:30:51.168Z,707.4
2022-11-23T11:31:53.881Z,707.3
2022-11-23T11:32:56.368Z,707.4
2022-11-23T11:33:59.016Z,707.4
2022-11-23T11:35:01.510Z,707.3
2022-11-23T11:36:03.696Z,707.4
2022-11-23T11:37:06.187Z,707.2
2022-11-23T11:38:08.398Z,707.3
2022-11-23T11:40:15.612Z,707.5
2022-11-23T11:41:18.093Z,707.6
2022-11-23T11:42:20.317Z,707.5
2022-11-23T11:44:27.784Z,707.4
2022-11-23T11:45:29.713Z,707.6
2022-11-23T11:46:33.046Z,707.5
2022-11-23T11:47:50.035Z,708
2022-11-23T11:48:52.291Z,707.9
2022-11-23T11:49:54.506Z,708.2
2022-11-23T11:50:56.438Z,708.1
2022-11-23T11:51:58.918Z,708.4
2022-11-23T11:53:01.191Z,708.6
2022-11-23T11:54:03.562Z,709
2022-11-23T11:55:06.131Z,709.1
2022-11-23T11:56:08.429Z,709.1
2022-11-23T11:57:10.673Z,709.1
2022-11-23T11:58:13.347Z,708.9
2022-11-23T11:59:15.343Z,709.1
2022-11-23T12:00:17.824Z,709.1
2022-11-23T12:01:19.763Z,708.9
2022-11-23T12:02:22.737Z,708.6
2022-11-23T12:03:25.298Z,708.5
2022-11-23T12:04:27.790Z,709.1
2022-11-23T12:05:30.268Z,709.1
2022-11-23T12:06:32.470Z,709.3
2022-11-23T12:07:35.345Z,709.5
2022-11-23T12:08:37.300Z,709.1
2022-11-23T12:09:38.959Z,709.9
2022-11-23T12:10:41.167Z,709.7
2022-11-23T12:11:43.366Z,709.2
2022-11-23T12:12:45.847Z,709.8
2022-11-23T12:13:48.508Z,709.4
2022-11-23T12:14:50.463Z,709.6
2022-11-23T12:15:52.778Z,709.5
2022-11-23T12:18:00.254Z,710.1
2022-11-23T12:19:02.563Z,710.3
2022-11-23T12:20:04.838Z,710.5
2022-11-23T12:21:07.853Z,710.4
2022-11-23T12:22:10.748Z,710.2
2022-11-23T12:23:13.247Z,710.3
2022-11-23T12:24:15.463Z,710.2
2022-11-23T12:25:17.944Z,710.3
2022-11-23T12:26:20.443Z,710.5
2022-11-23T12:27:22.922Z,710.3
2022-11-23T12:28:25.168Z,710.5
2022-11-23T12:29:27.692Z,710.6
2022-11-23T12:30:29.906Z,710.5
2022-11-23T12:31:32.121Z,710.6
2022-11-23T12:32:34.319Z,710.7
2022-11-23T12:33:36.533Z,710.9
2022-11-23T12:34:39.162Z,710.8
2022-11-23T12:35:41.390Z,711.1
2022-11-23T12:36:43.589Z,710.8
2022-11-23T12:37:46.071Z,710.7
2022-11-23T12:38:48.548Z,711
2022-11-23T12:39:50.782Z,710.8
2022-11-23T12:40:53.265Z,710.9
2022-11-23T12:41:55.768Z,711.1
2022-11-23T12:42:57.987Z,710.8
2022-11-23T12:44:00.203Z,710.8
2022-11-23T12:45:02.465Z,710.5
2022-11-23T12:46:04.953Z,710.8
2022-11-23T12:47:07.425Z,711.5
2022-11-23T12:48:09.900Z,710.9
2022-11-23T12:49:12.378Z,710.9
2022-11-23T12:50:14.676Z,711.1
2022-11-23T12:51:17.189Z,710.9
2022-11-23T12:52:19.392Z,711.1
2022-11-23T12:53:21.932Z,711
2022-11-23T12:54:24.180Z,710.7
2022-11-23T12:55:26.659Z,710.7
2022-11-23T12:56:28.890Z,710.8
2022-11-23T12:57:31.304Z,710.9
2022-11-23T12:58:33.867Z,710.6
2022-11-23T12:59:36.430Z,710.8
2022-11-23T13:00:39.288Z,710.6
2022-11-23T13:01:42.748Z,710.6
2022-11-23T13:02:44.718Z,710.5
2022-11-23T13:03:47.200Z,710.4
2022-11-23T13:04:49.695Z,710.7
2022-11-23T13:05:52.253Z,710.7
2022-11-23T13:07:59.937Z,710.9
2022-11-23T13:09:01.882Z,711.1
2022-11-23T13:10:04.088Z,711.4
2022-11-23T13:11:06.017Z,711.3
2022-11-23T13:12:08.508Z,711.2
2022-11-23T13:14:15.446Z,711.1
2022-11-23T13:15:17.952Z,711.2
2022-11-23T13:16:21.122Z,711.7
2022-11-23T13:17:24.173Z,711.6
2022-11-23T13:18:26.428Z,711.3
2022-11-23T13:19:28.384Z,711.5
2022-11-23T13:20:30.620Z,711.7
2022-11-23T13:21:32.891Z,711.1
2022-11-23T13:22:35.426Z,711.2
2022-11-23T13:23:37.921Z,711
2022-11-23T13:24:40.139Z,711
2022-11-23T13:25:42.613Z,710.9
2022-11-23T13:26:45.085Z,710.9
2022-11-23T13:27:47.566Z,711.2
2022-11-23T13:28:49.528Z,711.1
2022-11-23T13:29:51.835Z,711.3
2022-11-23T13:31:59.330Z,710.7
2022-11-23T13:33:01.877Z,710.7
2022-11-23T13:34:04.356Z,711.1
2022-11-23T13:35:06.269Z,711.2
2022-11-23T13:37:16.120Z,711.5
2022-11-23T13:38:18.652Z,711.3
2022-11-23T13:39:21.049Z,711.2
2022-11-23T13:40:23.552Z,711.2
2022-11-23T13:42:33.230Z,711.4
2022-11-23T13:43:35.728Z,711.6
2022-11-23T13:44:38.467Z,711.5
2022-11-23T13:45:40.694Z,711.8
2022-11-23T13:46:42.958Z,712
2022-11-23T13:47:45.506Z,712.1
2022-11-23T13:49:52.741Z,712.7
2022-11-23T13:50:55.261Z,712.8
2022-11-23T13:51:57.475Z,712.9
2022-11-23T13:53:00.042Z,713
2022-11-23T13:54:02.607Z,712.9